Flowood, Mississippi
Current Conditions -  °F | °C
As of 1:54 AM on Saturday 20 Dec 2014 (Local Time) from KJAN Reporting Station
Overcast Overcast  
Wind Chill: 42°   Ceiling: 900
Heat Index: 46°   Visibility: 10mi
Dew Point: 43°   Wind: 7mph
Humidity: 89%   Direction: 10°N
Pressure: 30.17"   Gusts: NA
Location:  32.3087°N, 90.1392°W
Report Text: KJAN 200754Z AUTO 01006KT 10SM BKN009 OVC041 08/06 A3017 RMK AO2 SLP215 T00780061
Loading
Personal Weather Stations






























Interactive Weather Map New forecast layout! Learn more

10-Day Weather Forecast

Advertisements
Track Severe Weather on mobile